Time;durP1;ratioP1;P1;durP2;ratioP2;P2;SDS_P1;SDS_P2;PMS_P1;PMS_P2;Temp;Humidity;BMP_temperature;BMP_pressure;BME280_temperature;BME280_humidity;BME280_pressure;Samples;Min_cycle;Max_cycle;Signal;HPM_P1;HPM_P2
2022/03/26 12:02:18;;;;;;;8.15;7.07;;;14.20;99.90;;;;;;5091427;28;21170;-73
2022/03/26 12:04:49;;;;;;;10.15;7.95;;;14.40;99.90;;;;;;5089950;28;20176;-73
2022/03/26 12:07:18;;;;;;;9.57;7.40;;;14.40;99.90;;;;;;5089978;28;20179;-73
2022/03/26 12:09:44;;;;;;;9.23;6.15;;;14.40;99.90;;;;;;5091045;28;20176;-74
2022/03/26 12:12:13;;;;;;;9.30;7.53;;;14.50;99.90;;;;;;5089963;28;20187;-74
2022/03/26 12:15:11;;;;;;;10.60;6.45;;;14.60;99.90;;;;;;5091042;28;20168;-74
2022/03/26 12:17:43;;;;;;;5.28;4.22;;;14.60;99.90;;;;;;5091025;28;20186;-74
2022/03/26 12:20:21;;;;;;;12.50;5.00;;;14.70;99.90;;;;;;5091027;28;20278;-74
2022/03/26 12:23:11;;;;;;;5.13;4.15;;;14.80;99.90;;;;;;5089759;28;20178;-74
2022/03/26 12:25:46;;;;;;;8.15;3.80;;;14.90;99.90;;;;;;5090851;28;20175;-74
2022/03/26 12:28:19;;;;;;;9.93;4.22;;;14.90;99.90;;;;;;5090588;28;20516;-74
2022/03/26 12:30:51;;;;;;;5.40;4.90;;;15.00;99.90;;;;;;5089527;28;20168;-73
2022/03/26 12:33:18;;;;;;;9.85;5.50;;;15.10;99.90;;;;;;5089041;28;20175;-73
2022/03/26 12:35:48;;;;;;;8.18;5.25;;;15.20;99.90;;;;;;5090630;28;20196;-73
2022/03/26 12:38:14;;;;;;;7.93;5.43;;;15.30;99.90;;;;;;5089204;28;20172;-73
2022/03/26 12:40:47;;;;;;;5.85;4.88;;;15.40;99.90;;;;;;5090375;28;20649;-73
2022/03/26 12:43:13;;;;;;;5.65;5.15;;;15.50;99.90;;;;;;5090514;28;20247;-73
2022/03/26 12:45:38;;;;;;;7.25;4.85;;;15.60;99.90;;;;;;5090381;28;20680;-73
2022/03/26 12:48:13;;;;;;;4.90;4.50;;;15.80;99.90;;;;;;5088968;28;20573;-73
2022/03/26 12:50:45;;;;;;;4.88;3.90;;;15.90;99.90;;;;;;5090392;28;20168;-73
2022/03/26 12:53:13;;;;;;;5.60;5.10;;;16.00;99.90;;;;;;5090225;28;20186;-73
2022/03/26 12:55:40;;;;;;;6.60;4.45;;;16.20;99.90;;;;;;5090192;28;20191;-73
2022/03/26 13:01:08;;;;;;;7.10;6.30;;;16.20;99.90;;;;;;5089967;28;20320;-73
2022/03/26 13:03:34;;;;;;;7.03;5.60;;;16.30;99.90;;;;;;5090035;28;20164;-73
2022/03/26 13:06:06;;;;;;;7.75;4.05;;;16.40;99.90;;;;;;5090031;28;20172;-73
2022/03/26 13:08:32;;;;;;;9.10;3.70;;;16.50;99.90;;;;;;5090156;28;20172;-73
2022/03/26 13:11:06;;;;;;;4.80;4.40;;;16.60;99.90;;;;;;5090088;28;20652;-73
2022/03/26 13:13:32;;;;;;;6.90;5.80;;;16.70;99.90;;;;;;5075913;28;20168;-73
2022/03/26 13:16:07;;;;;;;8.73;6.22;;;16.80;99.90;;;;;;5076332;28;20670;-73
2022/03/26 13:18:42;;;;;;;8.40;6.72;;;16.90;99.90;;;;;;5076062;28;20254;-73
2022/03/26 13:21:08;;;;;;;10.75;6.20;;;16.90;99.90;;;;;;5076456;28;20188;-73
2022/03/26 13:23:34;;;;;;;6.43;5.57;;;16.90;99.90;;;;;;5076259;28;20206;-73
2022/03/26 13:26:03;;;;;;;7.55;6.00;;;17.00;99.90;;;;;;5074929;28;20518;-73
2022/03/26 13:28:34;;;;;;;8.25;6.38;;;17.10;99.90;;;;;;5076027;28;20685;-72
2022/03/26 13:30:59;;;;;;;7.57;6.38;;;17.20;99.90;;;;;;5075979;28;20180;-73
2022/03/26 13:33:30;;;;;;;6.97;6.28;;;17.20;99.90;;;;;;5075962;28;20687;-73
2022/03/26 13:36:01;;;;;;;11.82;6.82;;;17.20;99.90;;;;;;5075982;28;20625;-73
2022/03/26 13:38:39;;;;;;;10.50;6.90;;;17.30;99.90;;;;;;5075849;28;20562;-73
2022/03/26 13:41:19;;;;;;;9.70;7.13;;;17.40;99.90;;;;;;5075689;28;20206;-72
2022/03/26 13:43:46;;;;;;;15.05;7.95;;;17.40;99.90;;;;;;5075726;28;20168;-72
2022/03/26 13:46:13;;;;;;;12.07;6.93;;;17.40;99.90;;;;;;5074431;28;20550;-73
2022/03/26 13:48:57;;;;;;;8.05;6.50;;;17.50;99.90;;;;;;5075546;28;20218;-73
2022/03/26 13:51:34;;;;;;;9.38;6.88;;;17.70;99.90;;;;;;5075506;28;20168;-73
2022/03/26 13:54:01;;;;;;;11.00;7.13;;;17.70;99.90;;;;;;5075618;28;20200;-73
2022/03/26 13:56:28;;;;;;;7.40;5.65;;;17.90;99.90;;;;;;5075678;28;20164;-73
2022/03/26 13:58:55;;;;;;;11.02;6.30;;;17.90;99.90;;;;;;5075668;28;20175;-73
2022/03/26 14:01:21;;;;;;;8.95;6.13;;;18.00;99.90;;;;;;5075212;28;20216;-73
2022/03/26 14:03:57;;;;;;;11.38;6.10;;;18.10;99.90;;;;;;5075451;28;20168;-73
2022/03/26 14:06:23;;;;;;;7.88;6.30;;;18.10;99.90;;;;;;5074255;28;20643;-73
2022/03/26 14:08:48;;;;;;;6.97;6.28;;;18.00;99.90;;;;;;5075412;28;20176;-73
2022/03/26 14:11:18;;;;;;;8.35;6.57;;;18.10;99.90;;;;;;5075427;28;20505;-73
2022/03/26 14:13:45;;;;;;;9.52;6.00;;;18.10;99.90;;;;;;5075337;28;20233;-73
2022/03/26 14:16:12;;;;;;;8.80;7.57;;;17.90;99.90;;;;;;5075386;28;20177;-73
2022/03/26 14:18:38;;;;;;;13.50;6.53;;;18.00;99.90;;;;;;5075142;28;20625;-73
2022/03/26 14:21:04;;;;;;;7.72;7.05;;;18.00;99.90;;;;;;5075117;28;20539;-73
2022/03/26 14:23:29;;;;;;;10.05;7.25;;;18.00;99.90;;;;;;5074119;28;20175;-73
2022/03/26 14:25:55;;;;;;;8.88;7.70;;;18.00;99.90;;;;;;5075215;28;20160;-73
2022/03/26 14:28:21;;;;;;;8.23;6.97;;;18.00;99.90;;;;;;5075062;28;20170;-73
2022/03/26 14:30:46;;;;;;;10.50;7.32;;;17.90;99.90;;;;;;5074930;28;20176;-73
2022/03/26 14:33:13;;;;;;;11.35;7.75;;;18.00;99.90;;;;;;5074829;28;20221;-73
2022/03/26 14:35:40;;;;;;;20.45;8.75;;;18.00;99.90;;;;;;5075047;28;20478;-73
2022/03/26 14:38:07;;;;;;;10.75;7.28;;;18.20;99.90;;;;;;5074767;28;20164;-73
2022/03/26 14:40:34;;;;;;;11.85;8.35;;;18.20;99.90;;;;;;5073574;28;20248;-73
2022/03/26 14:42:59;;;;;;;10.25;7.93;;;18.30;99.90;;;;;;5074743;28;20686;-73
2022/03/26 14:45:25;;;;;;;11.43;8.20;;;18.40;99.90;;;;;;5074688;28;20168;-73
2022/03/26 14:47:52;;;;;;;10.32;8.30;;;18.50;99.90;;;;;;5074855;28;20164;-73
2022/03/26 14:50:18;;;;;;;8.73;7.45;;;18.60;99.90;;;;;;5074595;28;20171;-73
2022/03/26 14:52:43;;;;;;;10.57;7.95;;;18.60;99.90;;;;;;5074673;28;20176;-73
2022/03/26 14:55:09;;;;;;;13.48;7.38;;;18.60;99.90;;;;;;5074378;28;20192;-73
2022/03/26 14:57:35;;;;;;;10.13;7.68;;;18.70;99.90;;;;;;5073143;28;20261;-73
2022/03/26 15:00:01;;;;;;;10.23;7.55;;;18.80;99.90;;;;;;5074279;28;20247;-73
2022/03/26 15:02:27;;;;;;;9.82;8.32;;;18.80;99.90;;;;;;5074390;28;20175;-73
2022/03/26 15:04:55;;;;;;;9.05;8.13;;;18.80;99.90;;;;;;5073145;28;20617;-73
2022/03/26 15:07:20;;;;;;;8.23;7.28;;;18.90;99.90;;;;;;5074218;28;20163;-73
2022/03/26 15:09:46;;;;;;;14.52;8.10;;;19.00;99.90;;;;;;5074409;28;20186;-73
2022/03/26 15:12:13;;;;;;;11.13;8.75;;;18.90;99.90;;;;;;5073900;28;20163;-73
2022/03/26 15:14:39;;;;;;;20.17;8.77;;;19.00;99.90;;;;;;5074010;28;20213;-73
2022/03/26 15:17:06;;;;;;;12.88;9.00;;;19.00;99.90;;;;;;5074091;28;20217;-73
2022/03/26 15:19:32;;;;;;;12.15;9.38;;;19.00;99.90;;;;;;5073972;28;20567;-73
2022/03/26 15:21:58;;;;;;;16.80;9.55;;;19.00;99.90;;;;;;5072714;28;20199;-73
2022/03/26 15:24:23;;;;;;;14.93;9.57;;;18.90;99.90;;;;;;5073891;28;20224;-73
2022/03/26 15:26:50;;;;;;;13.73;10.20;;;18.80;99.90;;;;;;5073943;28;20172;-73
2022/03/26 15:29:16;;;;;;;13.65;9.68;;;18.80;99.90;;;;;;5073799;28;20174;-73
2022/03/26 15:31:41;;;;;;;14.30;10.60;;;18.70;99.90;;;;;;5074070;28;20176;-73
2022/03/26 15:34:08;;;;;;;14.43;8.98;;;18.70;99.90;;;;;;5074006;28;20163;-73
2022/03/26 15:36:35;;;;;;;14.98;10.32;;;18.70;99.90;;;;;;5073487;28;20167;-73
2022/03/26 15:39:01;;;;;;;10.73;9.57;;;18.70;99.90;;;;;;5073538;28;20172;-73
2022/03/26 15:41:27;;;;;;;16.98;10.60;;;18.80;99.90;;;;;;5073671;28;20195;-73
2022/03/26 15:43:53;;;;;;;17.75;10.90;;;18.80;99.90;;;;;;5073853;28;20168;-73
2022/03/26 15:46:18;;;;;;;21.88;12.27;;;18.80;99.90;;;;;;5073710;28;20172;-74
2022/03/26 15:48:44;;;;;;;18.23;9.70;;;18.80;99.90;;;;;;5073700;28;20176;-72
2022/03/26 15:51:10;;;;;;;12.60;8.98;;;18.50;99.90;;;;;;5073795;28;20172;-72
2022/03/26 15:53:37;;;;;;;13.95;10.02;;;18.50;99.90;;;;;;5073559;28;20179;-72
2022/03/26 15:56:03;;;;;;;12.98;10.63;;;18.50;99.90;;;;;;5073450;28;20172;-72
2022/03/26 15:58:29;;;;;;;13.63;10.00;;;18.50;99.90;;;;;;5073369;28;20183;-72
2022/03/26 16:00:54;;;;;;;17.35;11.38;;;18.50;99.90;;;;;;5073311;28;20699;-72
2022/03/26 16:03:20;;;;;;;10.95;9.02;;;18.40;99.90;;;;;;5073282;28;20633;-72
2022/03/26 16:05:45;;;;;;;15.32;9.23;;;18.40;99.90;;;;;;5073446;28;20513;-73
2022/03/26 16:08:11;;;;;;;9.80;8.70;;;18.40;99.90;;;;;;5073199;28;20180;-73
2022/03/26 16:10:37;;;;;;;11.55;8.90;;;18.40;99.90;;;;;;5073230;28;20180;-73
2022/03/26 16:13:03;;;;;;;11.68;7.90;;;18.30;99.90;;;;;;5072037;28;20167;-71
2022/03/26 16:15:28;;;;;;;13.02;8.45;;;18.30;99.90;;;;;;5073170;28;20218;-72
2022/03/26 16:17:54;;;;;;;9.48;8.52;;;18.30;99.90;;;;;;5072951;28;20170;-83
2022/03/26 16:20:20;;;;;;;12.82;8.85;;;18.30;99.90;;;;;;5073015;28;20644;-76
2022/03/26 16:22:46;;;;;;;9.15;8.25;;;18.20;99.90;;;;;;5073111;28;20172;-76
2022/03/26 16:25:12;;;;;;;10.65;8.23;;;18.00;99.90;;;;;;5073004;28;20168;-73
2022/03/26 16:27:38;;;;;;;10.88;9.07;;;18.00;99.90;;;;;;5072989;28;20165;-74
2022/03/26 16:30:06;;;;;;;10.23;8.48;;;17.90;99.90;;;;;;5073004;28;20225;-81
2022/03/26 16:32:32;;;;;;;12.60;8.95;;;17.80;99.90;;;;;;5071754;28;20172;-81
2022/03/26 16:34:58;;;;;;;10.48;8.02;;;17.80;99.90;;;;;;5071552;28;20229;-74
2022/03/26 16:37:24;;;;;;;12.25;9.05;;;17.90;99.90;;;;;;5072902;28;20172;-79
2022/03/26 16:39:50;;;;;;;15.65;9.05;;;17.80;99.90;;;;;;5072996;28;20864;-75
2022/03/26 16:42:16;;;;;;;11.10;7.93;;;17.80;99.90;;;;;;5072930;28;20172;-74
2022/03/26 16:44:43;;;;;;;10.88;8.13;;;17.80;99.90;;;;;;5072730;28;20625;-72
2022/03/26 16:47:12;;;;;;;14.20;9.77;;;17.70;99.90;;;;;;5073718;28;20168;-76
2022/03/26 16:49:38;;;;;;;13.35;9.65;;;17.60;99.90;;;;;;5076681;28;20168;-75
2022/03/26 16:52:04;;;;;;;21.40;10.70;;;17.60;99.90;;;;;;5075370;28;20179;-72
2022/03/26 16:54:30;;;;;;;14.65;9.77;;;17.50;99.90;;;;;;5076403;28;20188;-75
2022/03/26 16:56:55;;;;;;;14.32;9.88;;;17.50;99.90;;;;;;5076331;28;20175;-77
2022/03/26 16:59:21;;;;;;;13.13;9.77;;;17.40;99.90;;;;;;5075211;28;20179;-69
2022/03/26 17:01:47;;;;;;;15.50;10.38;;;17.40;99.90;;;;;;5074868;28;20251;-72
2022/03/26 17:04:12;;;;;;;12.23;10.30;;;17.20;99.90;;;;;;5076213;28;20164;-72
2022/03/26 17:06:38;;;;;;;11.95;10.60;;;17.10;99.90;;;;;;5075952;28;20196;-72
2022/03/26 17:09:04;;;;;;;13.88;10.93;;;17.00;99.90;;;;;;5075088;28;20180;-72
2022/03/26 17:11:31;;;;;;;12.40;9.95;;;16.90;99.90;;;;;;5076307;28;20172;-72
2022/03/26 17:13:57;;;;;;;16.60;10.77;;;16.80;99.90;;;;;;5076059;28;20164;-72
2022/03/26 17:16:23;;;;;;;18.02;11.73;;;16.70;99.90;;;;;;5076352;28;20668;-72
2022/03/26 17:18:49;;;;;;;16.00;10.70;;;16.70;99.90;;;;;;5076104;28;20255;-72
2022/03/26 17:21:15;;;;;;;22.50;11.02;;;16.60;99.90;;;;;;5075975;28;20318;-72
2022/03/26 17:23:41;;;;;;;17.27;11.18;;;16.50;99.90;;;;;;5075948;28;20191;-72
2022/03/26 17:26:07;;;;;;;18.20;12.77;;;16.40;99.90;;;;;;5075892;28;20164;-72
2022/03/26 17:28:32;;;;;;;16.63;10.95;;;16.30;99.90;;;;;;5076070;28;20293;-72
2022/03/26 17:30:58;;;;;;;16.23;11.60;;;16.20;99.90;;;;;;5076027;28;20190;-72
2022/03/26 17:33:24;;;;;;;16.73;11.05;;;16.00;99.90;;;;;;5074886;28;20183;-72
2022/03/26 17:35:49;;;;;;;19.73;11.85;;;15.90;99.90;;;;;;5075622;28;20180;-72
2022/03/26 17:38:15;;;;;;;19.48;12.50;;;15.80;99.90;;;;;;5075804;28;20169;-72
2022/03/26 17:40:41;;;;;;;19.42;10.73;;;15.60;99.90;;;;;;5075606;28;20223;-72
2022/03/26 17:43:07;;;;;;;15.23;12.13;;;15.50;99.90;;;;;;5075713;28;20168;-72
2022/03/26 17:45:32;;;;;;;15.80;11.23;;;15.30;99.90;;;;;;5075725;28;20222;-72
2022/03/26 17:47:58;;;;;;;17.60;13.23;;;15.20;99.90;;;;;;5075512;28;20174;-72
2022/03/26 17:50:23;;;;;;;16.77;11.68;;;15.00;99.90;;;;;;5075431;28;20175;-72
2022/03/26 17:52:49;;;;;;;18.00;12.00;;;14.90;99.90;;;;;;5075807;28;20172;-72
2022/03/26 17:55:15;;;;;;;19.02;11.88;;;14.80;99.90;;;;;;5075491;28;20698;-72
2022/03/26 17:57:41;;;;;;;19.42;12.18;;;14.70;99.90;;;;;;5075320;28;20260;-72
2022/03/26 18:00:08;;;;;;;23.35;14.38;;;14.50;99.90;;;;;;5075312;28;20307;-72
2022/03/26 18:02:34;;;;;;;26.15;13.90;;;14.40;99.90;;;;;;5074068;28;20565;-72
2022/03/26 18:05:00;;;;;;;29.50;16.13;;;14.20;99.90;;;;;;5075110;28;20172;-72
